Time;durP1;ratioP1;P1;durP2;ratioP2;P2;SDS_P1;SDS_P2;PMS_P1;PMS_P2;Temp;Humidity;BMP_temperature;BMP_pressure;BME280_temperature;BME280_humidity;BME280_pressure;Samples;Min_cycle;Max_cycle;Signal;HPM_P1;HPM_P2
2024/03/08 00:01:00;;;;;;;28.70;25.80;;;3.70;99.90;;;;;;5112829;28;20182;-80
2024/03/08 00:03:28;;;;;;;29.63;26.53;;;3.70;99.90;;;;;;5104931;28;20204;-80
2024/03/08 00:05:55;;;;;;;29.60;26.53;;;3.60;99.90;;;;;;5106855;28;20649;-80
2024/03/08 00:08:24;;;;;;;29.20;26.13;;;3.60;99.90;;;;;;5107144;28;20189;-80
2024/03/08 00:10:51;;;;;;;27.73;24.80;;;3.50;99.90;;;;;;5107152;28;20213;-80
2024/03/08 00:13:18;;;;;;;27.57;24.87;;;3.60;99.90;;;;;;5110517;28;20207;-80
2024/03/08 00:15:45;;;;;;;27.40;24.63;;;3.50;99.90;;;;;;5106344;28;20273;-80
2024/03/08 00:18:12;;;;;;;26.87;24.17;;;3.50;99.90;;;;;;5109326;28;20201;-80
2024/03/08 00:20:39;;;;;;;27.53;24.73;;;3.40;99.90;;;;;;5102082;28;20679;-80
2024/03/08 00:23:05;;;;;;;27.00;24.30;;;3.40;99.90;;;;;;5107841;28;20185;-80
2024/03/08 00:25:34;;;;;;;25.53;23.00;;;3.40;99.90;;;;;;5104934;28;20772;-80
2024/03/08 00:28:00;;;;;;;27.37;24.57;;;3.40;99.90;;;;;;5107866;28;20185;-79
2024/03/08 00:30:27;;;;;;;27.80;24.90;;;3.40;99.90;;;;;;5108798;28;20199;-80
2024/03/08 00:32:54;;;;;;;26.67;23.97;;;3.30;99.90;;;;;;5099659;28;20213;-80
2024/03/08 00:35:21;;;;;;;28.70;25.50;;;3.30;99.90;;;;;;5107960;28;20711;-80
2024/03/08 00:37:47;;;;;;;27.17;24.40;;;3.30;99.90;;;;;;5102393;28;20359;-80
2024/03/08 00:40:14;;;;;;;27.03;24.23;;;3.20;99.90;;;;;;5108423;28;20200;-80
2024/03/08 00:42:43;;;;;;;26.93;24.27;;;3.10;99.90;;;;;;5104819;28;20198;-80
2024/03/08 00:45:11;;;;;;;27.77;25.00;;;3.10;99.90;;;;;;5108857;28;20269;-80
2024/03/08 00:47:38;;;;;;;27.53;24.57;;;3.00;99.90;;;;;;5106693;28;20209;-80
2024/03/08 00:50:05;;;;;;;27.80;24.87;;;3.00;99.90;;;;;;5100540;28;20224;-80
2024/03/08 00:52:34;;;;;;;27.87;25.00;;;3.00;99.90;;;;;;5112752;28;20227;-80
2024/03/08 00:55:01;;;;;;;27.73;24.73;;;3.00;99.90;;;;;;5107906;28;20663;-80
2024/03/08 00:57:28;;;;;;;27.67;24.87;;;2.90;99.90;;;;;;5114934;28;20228;-80
2024/03/08 00:59:57;;;;;;;26.47;23.03;;;2.90;99.90;;;;;;5114380;28;20272;-80
2024/03/08 01:02:23;;;;;;;27.23;24.47;;;2.80;99.90;;;;;;5114557;28;20638;-80
2024/03/08 01:04:51;;;;;;;26.73;24.13;;;2.80;99.90;;;;;;5114629;28;20699;-80
2024/03/08 01:07:18;;;;;;;28.30;24.40;;;2.70;99.90;;;;;;5110527;28;20209;-80
2024/03/08 01:09:44;;;;;;;27.70;23.60;;;2.70;99.90;;;;;;5109565;28;20266;-79
2024/03/08 01:12:11;;;;;;;26.80;23.90;;;2.60;99.90;;;;;;5110294;28;20224;-79
2024/03/08 01:14:38;;;;;;;27.20;24.40;;;2.60;99.90;;;;;;5108884;27;20624;-80
2024/03/08 01:17:06;;;;;;;28.73;25.63;;;2.60;99.90;;;;;;5111981;28;20207;-79
2024/03/08 01:19:33;;;;;;;27.43;24.63;;;2.60;99.90;;;;;;5109601;28;20242;-80
2024/03/08 01:22:00;;;;;;;29.73;26.37;;;2.50;99.90;;;;;;5104885;28;20661;-79
2024/03/08 01:24:26;;;;;;;27.10;24.30;;;2.60;99.90;;;;;;5111396;28;20209;-79
2024/03/08 01:26:53;;;;;;;26.87;24.27;;;2.60;99.90;;;;;;5107791;28;20193;-80
2024/03/08 01:29:20;;;;;;;26.90;24.27;;;2.60;99.90;;;;;;5114152;28;20205;-80
2024/03/08 01:31:47;;;;;;;26.13;23.43;;;2.60;99.90;;;;;;5107876;28;20221;-79
2024/03/08 01:34:15;;;;;;;25.67;23.17;;;2.60;99.90;;;;;;5111018;27;20225;-80
2024/03/08 01:36:42;;;;;;;25.83;23.20;;;2.50;99.90;;;;;;5110266;28;20201;-80
2024/03/08 01:39:09;;;;;;;26.50;23.90;;;2.50;99.90;;;;;;5104237;28;20227;-80
2024/03/08 01:41:36;;;;;;;26.87;23.40;;;2.50;99.90;;;;;;5109434;28;20197;-79
2024/03/08 01:44:03;;;;;;;26.97;24.33;;;2.40;99.90;;;;;;5107598;28;20201;-80
2024/03/08 01:46:31;;;;;;;29.03;26.03;;;2.40;99.90;;;;;;5110334;28;20667;-79
2024/03/08 01:48:58;;;;;;;28.43;25.43;;;2.40;99.90;;;;;;5108247;28;20224;-79
2024/03/08 01:51:35;;;;;;;28.93;25.97;;;2.40;99.90;;;;;;5110454;28;20215;-80
2024/03/08 01:54:04;;;;;;;29.63;26.47;;;2.30;99.90;;;;;;5110145;27;20197;-80
2024/03/08 01:56:31;;;;;;;26.40;23.60;;;2.20;99.90;;;;;;5104127;27;20292;-80
2024/03/08 01:59:00;;;;;;;27.37;24.17;;;2.20;99.90;;;;;;5109988;28;20711;-79
2024/03/08 02:01:28;;;;;;;27.37;24.47;;;2.20;99.90;;;;;;5109878;28;20258;-79
2024/03/08 02:03:55;;;;;;;27.80;24.83;;;2.20;99.90;;;;;;5103592;28;20201;-80
2024/03/08 02:06:22;;;;;;;29.97;25.67;;;2.10;99.90;;;;;;5109720;28;20739;-79
2024/03/08 02:08:50;;;;;;;27.23;24.33;;;2.20;99.90;;;;;;5103623;28;20229;-79
2024/03/08 02:11:17;;;;;;;28.07;25.23;;;2.10;99.90;;;;;;5109542;28;20221;-79
2024/03/08 02:13:44;;;;;;;28.50;25.47;;;2.10;99.90;;;;;;5106473;28;20582;-80
2024/03/08 02:16:11;;;;;;;28.13;25.27;;;2.00;99.90;;;;;;5110722;28;20680;-79
2024/03/08 02:18:39;;;;;;;28.30;25.50;;;1.90;99.90;;;;;;5110245;28;20197;-80
2024/03/08 02:21:08;;;;;;;28.10;25.27;;;1.80;99.90;;;;;;5113072;28;20583;-80
2024/03/08 02:23:35;;;;;;;27.83;24.83;;;1.80;99.90;;;;;;5111625;28;20708;-79
2024/03/08 02:26:02;;;;;;;29.23;25.60;;;1.80;99.90;;;;;;5103538;28;20747;-79
2024/03/08 02:28:29;;;;;;;28.40;25.50;;;1.70;99.90;;;;;;5110502;28;20651;-79
2024/03/08 02:30:56;;;;;;;27.50;24.63;;;1.70;99.90;;;;;;5104099;28;20237;-79
2024/03/08 02:33:24;;;;;;;26.87;24.03;;;1.80;99.90;;;;;;5110583;28;20262;-79
2024/03/08 02:35:51;;;;;;;27.97;24.97;;;1.80;99.90;;;;;;5105512;28;20642;-79
2024/03/08 02:38:21;;;;;;;28.23;25.33;;;1.70;99.90;;;;;;5111613;28;20208;-80
2024/03/08 02:40:49;;;;;;;26.43;23.63;;;1.70;99.90;;;;;;5107891;28;20197;-79
2024/03/08 02:43:18;;;;;;;27.77;24.87;;;1.70;99.90;;;;;;5102140;28;20198;-79
2024/03/08 02:45:45;;;;;;;28.97;25.97;;;1.70;99.90;;;;;;5110051;28;20217;-79
2024/03/08 02:48:13;;;;;;;27.73;24.83;;;1.70;99.90;;;;;;5103606;28;20205;-81
2024/03/08 02:50:42;;;;;;;31.60;24.67;;;1.60;99.90;;;;;;5111202;28;20249;-81
2024/03/08 02:53:09;;;;;;;27.53;24.70;;;1.50;99.90;;;;;;5103054;28;20221;-81
2024/03/08 02:55:38;;;;;;;27.07;24.17;;;1.50;99.90;;;;;;5113269;28;20808;-81
2024/03/08 02:58:05;;;;;;;27.80;24.93;;;1.40;99.90;;;;;;5107125;28;20428;-81
2024/03/08 03:00:32;;;;;;;28.43;25.37;;;1.40;99.90;;;;;;5108444;28;20209;-81
2024/03/08 03:02:59;;;;;;;27.43;24.63;;;1.40;99.90;;;;;;5105975;28;20276;-81
2024/03/08 03:05:26;;;;;;;26.57;24.00;;;1.40;99.90;;;;;;5108262;28;20258;-81
2024/03/08 03:07:53;;;;;;;27.43;24.37;;;1.30;99.90;;;;;;5108071;27;20443;-81
2024/03/08 03:10:21;;;;;;;26.47;23.87;;;1.30;99.90;;;;;;5101434;28;20976;-81
2024/03/08 03:12:50;;;;;;;26.87;24.03;;;1.30;99.90;;;;;;5107754;28;20565;-81
2024/03/08 03:15:17;;;;;;;25.53;23.03;;;1.20;99.90;;;;;;5102664;28;20462;-80
2024/03/08 03:17:48;;;;;;;27.80;24.80;;;1.10;99.90;;;;;;5108298;28;20250;-82
2024/03/08 03:20:22;;;;;;;28.57;24.47;;;1.10;99.90;;;;;;5104263;28;20511;-81
2024/03/08 03:22:51;;;;;;;29.13;26.10;;;1.10;99.90;;;;;;5109836;28;20426;-81
2024/03/08 03:25:23;;;;;;;28.80;25.23;;;1.10;99.90;;;;;;5105726;28;20470;-81
2024/03/08 03:27:52;;;;;;;27.53;24.83;;;1.10;99.90;;;;;;5110932;28;20427;-81
2024/03/08 03:30:21;;;;;;;29.60;26.53;;;1.10;99.90;;;;;;5106754;28;20438;-81
2024/03/08 03:32:49;;;;;;;27.20;24.37;;;1.10;99.90;;;;;;5104306;28;20702;-82
2024/03/08 03:35:16;;;;;;;28.80;25.77;;;1.10;99.90;;;;;;5108449;28;20984;-81
2024/03/08 03:37:45;;;;;;;27.53;24.53;;;1.00;99.90;;;;;;5111283;28;20557;-81
2024/03/08 03:40:14;;;;;;;29.03;25.93;;;1.00;99.90;;;;;;5102079;28;20814;-82
2024/03/08 03:42:40;;;;;;;30.83;25.33;;;0.90;99.90;;;;;;5107116;28;20447;-81
2024/03/08 03:45:10;;;;;;;28.00;24.80;;;0.90;99.90;;;;;;5105335;28;20471;-81
2024/03/08 03:47:37;;;;;;;28.97;25.67;;;0.90;99.90;;;;;;5110641;28;20455;-81
2024/03/08 03:50:06;;;;;;;29.53;26.03;;;0.90;99.90;;;;;;5115446;27;20865;-81
2024/03/08 03:52:32;;;;;;;31.20;26.10;;;0.90;99.90;;;;;;5115407;27;20509;-78
2024/03/08 03:54:59;;;;;;;27.60;24.70;;;1.00;99.90;;;;;;5103818;28;20464;-81
2024/03/08 03:57:26;;;;;;;27.87;25.07;;;1.00;99.90;;;;;;5113157;27;20537;-82
2024/03/08 03:59:53;;;;;;;27.60;24.90;;;0.90;99.90;;;;;;5125711;27;20199;-82
2024/03/08 04:02:21;;;;;;;32.20;26.33;;;0.90;99.90;;;;;;5116388;27;20475;-82
2024/03/08 04:04:49;;;;;;;28.07;25.17;;;0.80;99.90;;;;;;5112841;28;20541;-80
2024/03/08 04:07:16;;;;;;;28.13;25.10;;;0.80;99.90;;;;;;5123584;27;20452;-81
2024/03/08 04:09:43;;;;;;;27.90;24.40;;;0.80;99.90;;;;;;5121705;27;20204;-79
2024/03/08 04:12:10;;;;;;;27.40;23.70;;;0.80;99.90;;;;;;5124844;27;20525;-79
2024/03/08 04:14:37;;;;;;;28.13;25.23;;;0.70;99.90;;;;;;5105681;27;20519;-79
2024/03/08 04:17:04;;;;;;;28.70;25.77;;;0.70;99.90;;;;;;5111510;28;20447;-80
2024/03/08 04:19:34;;;;;;;27.33;24.43;;;0.70;99.90;;;;;;5102744;28;20442;-78
2024/03/08 04:22:02;;;;;;;30.67;27.40;;;0.70;99.90;;;;;;5107680;28;20434;-80
2024/03/08 04:24:30;;;;;;;29.03;26.03;;;0.70;99.90;;;;;;5111801;28;20523;-80
2024/03/08 04:26:57;;;;;;;30.43;27.10;;;0.80;99.90;;;;;;5111677;28;20862;-80
2024/03/08 04:29:24;;;;;;;31.47;26.23;;;0.70;99.90;;;;;;5113073;28;20523;-79
2024/03/08 04:31:54;;;;;;;28.50;25.77;;;0.70;99.90;;;;;;5109592;28;20837;-80
2024/03/08 04:34:21;;;;;;;29.10;25.80;;;0.70;99.90;;;;;;5112303;28;20843;-80
2024/03/08 04:36:49;;;;;;;29.80;26.57;;;0.70;99.90;;;;;;5111475;28;20491;-79
2024/03/08 04:39:16;;;;;;;28.43;25.43;;;0.70;99.90;;;;;;5111828;28;20450;-79
2024/03/08 04:41:44;;;;;;;33.67;27.60;;;0.70;99.90;;;;;;5111648;28;20454;-80
2024/03/08 04:44:12;;;;;;;29.87;26.17;;;0.60;99.90;;;;;;5109020;28;20561;-79
2024/03/08 04:46:39;;;;;;;27.60;24.77;;;0.60;99.90;;;;;;5112567;28;20438;-80
2024/03/08 04:49:07;;;;;;;28.20;25.03;;;0.60;99.90;;;;;;5107201;27;20540;-80
2024/03/08 04:51:34;;;;;;;29.37;26.30;;;0.50;99.90;;;;;;5098176;28;20443;-80
2024/03/08 04:54:02;;;;;;;30.17;25.23;;;0.50;99.90;;;;;;5107018;28;20507;-80
2024/03/08 04:56:29;;;;;;;31.20;27.33;;;0.60;99.90;;;;;;5105127;27;20445;-80
2024/03/08 04:58:56;;;;;;;30.53;26.37;;;0.60;99.90;;;;;;5110608;28;20450;-80
2024/03/08 05:01:23;;;;;;;29.83;26.63;;;0.60;99.90;;;;;;5099725;28;20439;-78
2024/03/08 05:03:50;;;;;;;28.23;25.40;;;0.60;99.90;;;;;;5103177;28;20435;-78
2024/03/08 05:06:18;;;;;;;35.20;29.27;;;0.60;99.90;;;;;;5105994;28;20446;-78
2024/03/08 05:08:44;;;;;;;34.90;30.23;;;0.70;99.90;;;;;;5110267;28;20461;-78
2024/03/08 05:11:14;;;;;;;34.20;30.27;;;0.70;99.90;;;;;;5104279;28;20960;-79
2024/03/08 05:13:41;;;;;;;35.83;30.20;;;0.80;99.90;;;;;;5102772;28;20498;-78
2024/03/08 05:16:08;;;;;;;33.83;30.17;;;0.80;99.90;;;;;;5123136;28;20514;-78
2024/03/08 05:18:36;;;;;;;33.03;28.60;;;1.00;99.90;;;;;;5101033;28;20458;-77
2024/03/08 05:21:03;;;;;;;31.43;28.00;;;1.00;99.90;;;;;;5109737;28;20441;-78
2024/03/08 05:23:30;;;;;;;33.77;30.17;;;1.00;99.90;;;;;;5108129;28;20951;-78
2024/03/08 05:25:57;;;;;;;32.90;27.93;;;1.00;99.90;;;;;;5102155;28;20481;-78
2024/03/08 05:28:26;;;;;;;32.60;28.97;;;1.00;99.90;;;;;;5105043;28;20207;-78
2024/03/08 05:30:54;;;;;;;33.60;29.97;;;1.10;99.90;;;;;;5111634;27;20441;-78
2024/03/08 05:33:21;;;;;;;33.23;28.50;;;1.30;99.90;;;;;;5105405;28;20299;-78
2024/03/08 05:35:47;;;;;;;33.43;29.30;;;1.30;99.90;;;;;;5102929;28;20912;-80
2024/03/08 05:38:15;;;;;;;32.47;29.03;;;1.40;99.90;;;;;;5113162;28;20447;-80
2024/03/08 05:40:43;;;;;;;36.47;31.30;;;1.50;99.90;;;;;;5108117;28;20439;-81
2024/03/08 05:43:11;;;;;;;32.83;29.37;;;1.60;99.90;;;;;;5113977;28;20663;-80
2024/03/08 05:45:39;;;;;;;31.00;27.77;;;1.70;99.90;;;;;;5110036;28;21008;-80
2024/03/08 05:48:07;;;;;;;33.33;29.63;;;1.70;99.90;;;;;;5106141;28;20450;-80
2024/03/08 05:50:34;;;;;;;33.30;28.67;;;1.80;99.90;;;;;;5106372;28;20470;-78
2024/03/08 05:53:01;;;;;;;32.80;28.13;;;1.80;99.90;;;;;;5104190;28;20486;-78
2024/03/08 05:55:29;;;;;;;30.80;27.60;;;1.80;99.90;;;;;;5110105;27;20248;-78
2024/03/08 05:57:56;;;;;;;31.20;27.90;;;1.80;99.90;;;;;;5113843;27;20190;-78
2024/03/08 06:00:24;;;;;;;30.30;27.20;;;1.80;99.90;;;;;;5114041;28;20680;-78
2024/03/08 06:02:52;;;;;;;33.70;29.03;;;1.80;99.90;;;;;;5109371;28;20264;-78
2024/03/08 06:05:19;;;;;;;30.90;27.60;;;1.90;99.90;;;;;;5111169;28;20224;-78
2024/03/08 06:07:46;;;;;;;33.73;29.77;;;2.00;99.90;;;;;;5109242;28;20193;-78
2024/03/08 06:10:13;;;;;;;35.37;29.07;;;2.10;99.90;;;;;;5110571;28;20664;-78
2024/03/08 06:12:41;;;;;;;32.70;28.97;;;2.20;99.90;;;;;;5107969;28;20695;-78
2024/03/08 06:15:09;;;;;;;30.83;27.40;;;2.20;99.90;;;;;;5108128;28;20507;-78
2024/03/08 06:17:36;;;;;;;28.80;25.80;;;2.20;99.90;;;;;;5109285;28;20690;-79
2024/03/08 06:20:10;;;;;;;32.40;28.30;;;2.30;99.90;;;;;;5105495;28;20194;-78
2024/03/08 06:22:37;;;;;;;29.60;26.53;;;2.30;99.90;;;;;;5109912;28;20576;-78
2024/03/08 06:25:04;;;;;;;28.73;25.77;;;2.30;99.90;;;;;;5113061;28;20519;-78
2024/03/08 06:27:33;;;;;;;29.60;26.50;;;2.30;99.90;;;;;;5110979;28;20213;-79
2024/03/08 06:30:00;;;;;;;28.77;25.87;;;2.40;99.90;;;;;;5105742;28;20280;-79
2024/03/08 06:32:27;;;;;;;29.97;26.20;;;2.50;99.90;;;;;;5108943;28;20714;-78
2024/03/08 06:34:54;;;;;;;29.67;26.57;;;2.60;99.90;;;;;;5112460;28;20213;-78
2024/03/08 06:37:23;;;;;;;32.90;29.50;;;2.60;99.90;;;;;;5107959;28;20201;-78
2024/03/08 06:39:51;;;;;;;30.83;27.73;;;2.70;99.90;;;;;;5110296;28;20193;-78
2024/03/08 06:42:18;;;;;;;30.07;26.83;;;2.80;99.90;;;;;;5107483;28;20231;-78
2024/03/08 06:44:49;;;;;;;30.00;26.70;;;2.80;99.90;;;;;;5110437;28;20225;-79
2024/03/08 06:47:16;;;;;;;30.00;26.30;;;2.90;99.90;;;;;;5107999;28;20262;-78
2024/03/08 06:49:43;;;;;;;30.43;27.17;;;2.90;99.90;;;;;;5112614;28;20228;-78
2024/03/08 06:52:10;;;;;;;31.93;27.50;;;2.90;99.90;;;;;;5105366;28;20265;-79
2024/03/08 06:54:38;;;;;;;33.33;27.90;;;2.80;99.90;;;;;;5109300;28;20213;-78
2024/03/08 06:57:05;;;;;;;30.50;27.13;;;2.80;99.90;;;;;;5110426;28;20262;-79
2024/03/08 06:59:32;;;;;;;31.60;28.23;;;2.90;99.90;;;;;;5105847;28;20222;-79
2024/03/08 07:02:00;;;;;;;30.47;27.07;;;2.90;99.90;;;;;;5111721;28;20190;-79
2024/03/08 07:04:29;;;;;;;29.70;26.73;;;2.90;99.90;;;;;;5102837;28;20241;-78
2024/03/08 07:06:57;;;;;;;31.63;27.40;;;3.00;99.90;;;;;;5110047;28;20305;-79
2024/03/08 07:09:24;;;;;;;31.20;27.47;;;3.00;99.90;;;;;;5103450;28;20204;-79
2024/03/08 07:11:54;;;;;;;28.03;25.10;;;3.00;99.90;;;;;;5110517;28;20233;-79
2024/03/08 07:14:22;;;;;;;28.97;25.90;;;3.10;99.90;;;;;;5107256;28;20697;-79
2024/03/08 07:16:49;;;;;;;28.87;25.80;;;3.10;99.90;;;;;;5111524;28;20272;-78
2024/03/08 07:19:16;;;;;;;28.67;25.73;;;3.10;99.90;;;;;;5107798;28;20197;-79
2024/03/08 07:21:44;;;;;;;28.03;25.20;;;3.20;99.90;;;;;;5102410;28;20198;-78
2024/03/08 07:24:27;;;;;;;26.60;23.90;;;3.20;99.90;;;;;;5111354;28;20703;-78
2024/03/08 07:26:55;;;;;;;28.93;26.03;;;3.30;99.90;;;;;;5108693;28;20267;-79
2024/03/08 07:29:22;;;;;;;33.13;27.77;;;3.30;99.90;;;;;;5107708;28;20208;-78
2024/03/08 07:31:56;;;;;;;27.70;24.87;;;3.30;99.90;;;;;;5107565;28;20756;-78
2024/03/08 07:34:23;;;;;;;29.77;26.73;;;3.40;99.90;;;;;;5104258;28;20229;-78
2024/03/08 07:36:50;;;;;;;27.33;24.70;;;3.50;99.90;;;;;;5108964;28;20200;-79
2024/03/08 07:39:18;;;;;;;28.67;25.67;;;3.60;99.90;;;;;;5105863;28;20193;-78
2024/03/08 07:41:45;;;;;;;28.27;25.40;;;3.70;99.90;;;;;;5102589;28;20684;-78
2024/03/08 07:44:14;;;;;;;30.37;26.20;;;3.70;99.90;;;;;;5108406;28;20224;-78
2024/03/08 07:46:41;;;;;;;27.67;24.87;;;3.90;99.90;;;;;;5102487;28;20257;-78
2024/03/08 07:49:10;;;;;;;27.53;24.47;;;4.00;99.90;;;;;;5107979;28;20715;-79
2024/03/08 07:51:37;;;;;;;28.10;25.30;;;4.10;99.90;;;;;;5110750;28;20661;-78
2024/03/08 07:54:04;;;;;;;27.20;24.40;;;4.30;99.90;;;;;;5107436;28;20203;-79
2024/03/08 07:56:31;;;;;;;26.63;23.57;;;4.30;99.90;;;;;;5103132;28;20679;-78
2024/03/08 07:58:58;;;;;;;25.73;23.23;;;4.50;99.90;;;;;;5110632;28;20204;-79
2024/03/08 08:01:26;;;;;;;27.70;24.83;;;4.60;99.90;;;;;;5109513;28;20644;-78
2024/03/08 08:03:53;;;;;;;27.87;24.97;;;4.70;99.90;;;;;;5106971;28;20628;-78
2024/03/08 08:06:19;;;;;;;27.20;24.50;;;4.50;99.90;;;;;;5109156;28;20623;-79
2024/03/08 08:08:46;;;;;;;27.53;24.73;;;4.40;99.90;;;;;;5106213;28;20247;-78
2024/03/08 08:11:15;;;;;;;26.87;24.00;;;4.40;99.90;;;;;;5102307;28;20231;-78
2024/03/08 08:13:43;;;;;;;26.30;23.67;;;4.50;99.90;;;;;;5100563;28;20220;-77
2024/03/08 08:16:10;;;;;;;27.73;24.83;;;4.50;99.90;;;;;;5104052;27;20286;-78
2024/03/08 08:18:39;;;;;;;27.67;24.83;;;4.50;99.90;;;;;;5106302;28;20203;-78
2024/03/08 08:21:06;;;;;;;27.33;24.43;;;4.60;99.90;;;;;;5103262;28;20252;-79
2024/03/08 08:23:33;;;;;;;27.03;24.33;;;4.70;99.90;;;;;;5104486;28;20202;-80
2024/03/08 08:25:59;;;;;;;26.53;23.83;;;4.80;99.90;;;;;;5109603;28;20211;-80
2024/03/08 08:28:26;;;;;;;25.83;23.33;;;4.90;99.90;;;;;;5108543;28;20255;-79
2024/03/08 08:30:53;;;;;;;27.53;24.83;;;5.00;99.90;;;;;;5104578;28;20214;-79
2024/03/08 08:33:20;;;;;;;25.57;23.07;;;5.10;99.90;;;;;;5110305;28;20216;-79
2024/03/08 08:35:51;;;;;;;25.57;23.07;;;5.60;99.90;;;;;;5106848;28;20343;-80
2024/03/08 08:38:20;;;;;;;26.50;23.97;;;6.10;99.90;;;;;;5109214;28;20200;-79
2024/03/08 08:40:47;;;;;;;25.53;23.13;;;6.20;99.90;;;;;;5107222;28;20197;-79
2024/03/08 08:43:13;;;;;;;26.97;24.47;;;6.20;99.90;;;;;;5101869;28;20204;-78
2024/03/08 08:45:40;;;;;;;24.77;22.30;;;6.00;99.90;;;;;;5108049;28;20213;-78
2024/03/08 08:48:08;;;;;;;25.13;22.43;;;5.90;99.90;;;;;;5105805;28;20204;-82
2024/03/08 08:50:35;;;;;;;25.17;22.80;;;5.80;99.90;;;;;;5108260;28;20688;-80
2024/03/08 08:53:06;;;;;;;26.03;23.53;;;5.70;99.90;;;;;;5103500;28;20196;-79
2024/03/08 08:55:35;;;;;;;24.33;22.07;;;5.70;99.90;;;;;;5110808;28;20216;-77
2024/03/08 08:58:03;;;;;;;25.57;23.00;;;5.80;99.90;;;;;;5105196;28;20307;-77
2024/03/08 09:00:30;;;;;;;25.30;22.90;;;5.60;99.90;;;;;;5113562;28;20232;-80
2024/03/08 09:02:58;;;;;;;25.60;23.00;;;5.70;99.90;;;;;;5107268;28;20200;-80
2024/03/08 09:05:26;;;;;;;25.63;23.03;;;5.70;99.90;;;;;;5106888;28;20233;-80
2024/03/08 09:07:53;;;;;;;25.50;22.93;;;5.70;99.90;;;;;;5102255;28;20223;-79
2024/03/08 09:10:22;;;;;;;25.20;22.73;;;5.80;99.90;;;;;;5106782;28;20197;-79
2024/03/08 09:12:49;;;;;;;25.10;22.70;;;5.80;99.90;;;;;;5105639;28;20201;-79
2024/03/08 09:15:20;;;;;;;24.20;21.90;;;5.90;99.90;;;;;;5112256;28;20224;-79
2024/03/08 09:17:48;;;;;;;24.67;22.27;;;6.00;99.90;;;;;;5109481;27;20222;-79
2024/03/08 09:20:15;;;;;;;24.83;22.43;;;6.00;99.90;;;;;;5103503;28;20569;-79
2024/03/08 09:22:43;;;;;;;24.37;22.07;;;6.00;99.90;;;;;;5110582;28;20242;-79
2024/03/08 09:25:10;;;;;;;24.43;22.23;;;6.00;99.90;;;;;;5104581;28;20694;-79
2024/03/08 09:27:39;;;;;;;24.33;22.00;;;6.00;99.90;;;;;;5111368;28;20205;-79
2024/03/08 09:30:07;;;;;;;23.70;21.50;;;6.10;99.90;;;;;;5105603;28;20353;-79
2024/03/08 09:32:34;;;;;;;24.40;22.10;;;6.20;99.90;;;;;;5110550;28;20217;-79
2024/03/08 09:35:01;;;;;;;23.73;21.43;;;6.20;99.90;;;;;;5108356;28;20232;-79
2024/03/08 09:37:28;;;;;;;24.40;22.13;;;6.20;99.90;;;;;;5111904;28;20193;-80
2024/03/08 09:39:54;;;;;;;23.57;21.37;;;6.30;99.90;;;;;;5109053;28;20204;-79
2024/03/08 09:42:21;;;;;;;25.57;22.93;;;6.50;99.90;;;;;;5105009;28;20217;-80
2024/03/08 09:44:49;;;;;;;24.90;22.40;;;6.50;99.90;;;;;;5112148;28;20205;-80
2024/03/08 09:47:17;;;;;;;23.43;21.13;;;6.50;99.90;;;;;;5106930;28;20201;-80
2024/03/08 09:49:44;;;;;;;23.73;21.37;;;6.70;99.90;;;;;;5111205;28;20189;-80
2024/03/08 09:52:12;;;;;;;24.13;21.73;;;6.90;99.90;;;;;;5107227;27;20208;-79
2024/03/08 09:54:39;;;;;;;23.07;20.87;;;6.90;99.90;;;;;;5114448;28;20232;-77
2024/03/08 09:57:08;;;;;;;23.20;20.93;;;7.10;99.90;;;;;;5110123;28;20288;-80
2024/03/08 09:59:48;;;;;;;23.50;21.00;;;7.00;99.90;;;;;;5113889;27;20631;-79
2024/03/08 10:02:17;;;;;;;21.90;19.80;;;7.10;99.90;;;;;;5108611;28;20193;-79
2024/03/08 10:04:46;;;;;;;24.07;21.73;;;7.30;99.90;;;;;;5109893;28;20242;-81
2024/03/08 10:07:14;;;;;;;22.80;20.60;;;7.40;99.90;;;;;;5115944;28;20293;-81
2024/03/08 10:09:41;;;;;;;23.00;20.77;;;7.50;99.90;;;;;;5115507;28;20250;-80
2024/03/08 10:12:10;;;;;;;24.20;21.70;;;7.60;99.90;;;;;;5114380;28;20258;-80
2024/03/08 10:14:41;;;;;;;23.03;20.83;;;7.60;99.90;;;;;;5103310;28;20218;-81
2024/03/08 10:17:08;;;;;;;22.93;20.67;;;7.40;99.90;;;;;;5111719;28;20197;-81
2024/03/08 10:19:36;;;;;;;23.83;21.53;;;7.30;99.90;;;;;;5109893;28;20205;-81
2024/03/08 10:22:04;;;;;;;23.73;21.43;;;7.30;99.90;;;;;;5132210;27;20186;-81
2024/03/08 10:24:33;;;;;;;23.00;20.77;;;7.20;99.90;;;;;;5112640;28;20202;-82
2024/03/08 10:27:01;;;;;;;23.70;21.30;;;7.40;99.90;;;;;;5111362;28;20194;-81
2024/03/08 10:29:29;;;;;;;22.93;20.83;;;7.40;99.90;;;;;;5115661;28;20193;-80
2024/03/08 10:31:57;;;;;;;24.10;21.80;;;7.40;99.90;;;;;;5107568;28;20197;-81
2024/03/08 10:34:24;;;;;;;22.97;20.80;;;7.30;99.90;;;;;;5115837;28;20262;-83
2024/03/08 10:36:53;;;;;;;23.20;21.10;;;7.20;99.90;;;;;;5115660;28;20189;-83
2024/03/08 10:39:23;;;;;;;23.13;20.83;;;7.30;99.90;;;;;;5116708;28;20754;-78
2024/03/08 10:41:59;;;;;;;23.30;21.10;;;7.60;99.90;;;;;;5117268;28;20200;-82
2024/03/08 10:44:51;;;;;;;24.03;21.73;;;7.90;99.90;;;;;;5114625;28;20584;-82
2024/03/08 10:47:29;;;;;;;24.13;21.63;;;8.00;99.90;;;;;;5114437;28;20208;-82
2024/03/08 10:50:03;;;;;;;21.33;19.50;;;8.10;99.90;;;;;;5115377;28;20231;-82
2024/03/08 10:52:32;;;;;;;22.33;20.23;;;8.10;99.90;;;;;;5111020;28;20287;-82
2024/03/08 10:55:00;;;;;;;22.47;20.37;;;8.20;99.90;;;;;;5115209;28;20296;-82
2024/03/08 10:57:27;;;;;;;22.80;20.57;;;8.20;99.90;;;;;;5111764;28;20196;-80
2024/03/08 10:59:55;;;;;;;24.37;21.97;;;8.30;99.90;;;;;;5112218;28;20193;-80
2024/03/08 11:02:27;;;;;;;23.60;21.50;;;8.50;99.90;;;;;;5106004;28;20186;-80
2024/03/08 11:04:56;;;;;;;23.30;21.00;;;8.70;99.90;;;;;;5111361;28;20218;-81
2024/03/08 11:07:23;;;;;;;22.93;20.87;;;8.80;99.90;;;;;;5110073;27;20565;-80
2024/03/08 11:09:51;;;;;;;24.93;22.53;;;9.10;99.90;;;;;;5114069;28;20207;-80
2024/03/08 11:12:26;;;;;;;22.40;20.30;;;8.90;99.90;;;;;;5110079;28;20653;-80
2024/03/08 11:14:54;;;;;;;23.33;21.13;;;9.20;99.90;;;;;;5110528;28;20703;-81
2024/03/08 11:17:41;;;;;;;23.70;21.40;;;9.20;99.90;;;;;;5111718;28;20187;-80
2024/03/08 11:20:15;;;;;;;24.67;22.40;;;9.30;99.90;;;;;;5112675;28;20548;-80
2024/03/08 11:22:45;;;;;;;23.93;21.53;;;9.30;99.90;;;;;;5109773;28;20193;-81
2024/03/08 11:25:33;;;;;;;24.07;21.87;;;9.10;99.90;;;;;;5101854;28;20225;-80
2024/03/08 11:28:17;;;;;;;24.13;21.73;;;8.90;99.90;;;;;;5114486;28;20704;-80
2024/03/08 11:30:48;;;;;;;25.07;22.67;;;8.60;99.90;;;;;;5109195;28;20268;-80
2024/03/08 11:33:16;;;;;;;24.33;22.00;;;8.50;99.90;;;;;;5112685;28;20193;-80
2024/03/08 11:35:45;;;;;;;24.97;22.43;;;8.40;99.90;;;;;;5112887;28;20231;-80
2024/03/08 11:38:14;;;;;;;25.20;22.67;;;8.40;99.90;;;;;;5113685;28;20208;-80
2024/03/08 11:40:42;;;;;;;24.10;21.80;;;8.00;99.90;;;;;;5113456;28;20721;-80
2024/03/08 11:43:10;;;;;;;24.77;22.57;;;7.90;99.90;;;;;;5114224;28;20197;-80
2024/03/08 11:45:37;;;;;;;26.27;23.67;;;7.90;99.90;;;;;;5113331;28;20215;-80
2024/03/08 11:48:04;;;;;;;25.93;23.33;;;7.70;99.90;;;;;;5113066;28;20201;-80
2024/03/08 11:50:33;;;;;;;23.83;21.53;;;7.50;99.90;;;;;;5111096;27;20193;-80
2024/03/08 11:53:04;;;;;;;23.97;21.67;;;7.50;99.90;;;;;;5114160;28;20680;-80
2024/03/08 11:55:31;;;;;;;23.40;21.17;;;7.60;99.90;;;;;;5106176;28;20205;-80
2024/03/08 11:58:05;;;;;;;25.33;22.90;;;7.60;99.90;;;;;;5113089;28;20228;-80
2024/03/08 12:00:37;;;;;;;26.47;23.60;;;7.60;99.90;;;;;;5113102;28;20219;-80
2024/03/08 12:03:06;;;;;;;23.03;20.80;;;7.50;99.90;;;;;;5114484;28;20192;-80
2024/03/08 12:05:34;;;;;;;21.93;19.77;;;7.40;99.90;;;;;;5112318;28;20244;-81
2024/03/08 12:08:01;;;;;;;23.20;20.73;;;7.50;99.90;;;;;;5122927;27;20292;-81
2024/03/08 12:10:28;;;;;;;25.60;23.10;;;7.60;99.90;;;;;;5111984;28;20663;-79
2024/03/08 12:12:59;;;;;;;23.00;20.80;;;7.70;99.90;;;;;;5107723;28;20193;-79
2024/03/08 12:15:29;;;;;;;24.73;22.33;;;7.60;99.90;;;;;;5111510;28;20224;-79
2024/03/08 12:17:57;;;;;;;23.97;21.57;;;7.60;99.90;;;;;;5111890;28;20201;-78
2024/03/08 12:20:25;;;;;;;23.27;21.07;;;7.60;99.90;;;;;;5111903;28;20258;-79
2024/03/08 12:22:53;;;;;;;23.47;21.00;;;7.60;99.90;;;;;;5113195;28;20209;-79
2024/03/08 12:25:21;;;;;;;23.37;21.07;;;7.70;99.90;;;;;;5111248;28;20235;-79
2024/03/08 12:27:48;;;;;;;22.40;20.27;;;7.70;99.90;;;;;;5112091;28;20185;-79
2024/03/08 12:30:46;;;;;;;23.70;21.17;;;7.80;99.90;;;;;;5111972;28;20209;-83
2024/03/08 12:33:13;;;;;;;23.87;21.47;;;7.80;99.90;;;;;;5113553;28;20193;-80
2024/03/08 12:35:42;;;;;;;25.27;22.57;;;7.80;99.90;;;;;;5111235;28;20227;-80
2024/03/08 12:38:08;;;;;;;24.90;22.00;;;7.70;99.90;;;;;;5108263;28;20202;-79
2024/03/08 12:40:40;;;;;;;23.33;21.10;;;7.80;99.90;;;;;;5107839;28;20192;-80